sensor_id;sensor_type;location;lat;lon;timestamp;temperature;humidity
29813;DHT22;16707;48.106;11.548;2023-12-20T00:00:27;6.40;90.10
29813;DHT22;16707;48.106;11.548;2023-12-20T00:02:54;6.50;89.80
29813;DHT22;16707;48.106;11.548;2023-12-20T00:05:20;6.50;90.00
29813;DHT22;16707;48.106;11.548;2023-12-20T00:07:47;6.50;89.90
29813;DHT22;16707;48.106;11.548;2023-12-20T00:10:14;6.50;90.10
29813;DHT22;16707;48.106;11.548;2023-12-20T00:12:41;6.50;90.30
29813;DHT22;16707;48.106;11.548;2023-12-20T00:15:08;6.50;90.30
29813;DHT22;16707;48.106;11.548;2023-12-20T00:17:36;6.50;90.60
29813;DHT22;16707;48.106;11.548;2023-12-20T00:20:03;6.60;90.60
29813;DHT22;16707;48.106;11.548;2023-12-20T00:22:31;6.60;90.80
29813;DHT22;16707;48.106;11.548;2023-12-20T00:25:00;6.60;90.80
29813;DHT22;16707;48.106;11.548;2023-12-20T00:27:27;6.60;90.90
29813;DHT22;16707;48.106;11.548;2023-12-20T00:29:58;6.60;91.00
29813;DHT22;16707;48.106;11.548;2023-12-20T00:32:26;6.60;91.00
29813;DHT22;16707;48.106;11.548;2023-12-20T00:34:54;6.70;90.40
29813;DHT22;16707;48.106;11.548;2023-12-20T00:37:21;6.80;89.50
29813;DHT22;16707;48.106;11.548;2023-12-20T00:39:49;6.90;87.10
29813;DHT22;16707;48.106;11.548;2023-12-20T00:42:16;6.90;86.50
29813;DHT22;16707;48.106;11.548;2023-12-20T00:44:42;7.10;82.20
29813;DHT22;16707;48.106;11.548;2023-12-20T00:47:09;7.20;81.00
29813;DHT22;16707;48.106;11.548;2023-12-20T00:49:36;7.30;80.10
29813;DHT22;16707;48.106;11.548;2023-12-20T00:52:05;7.30;80.00
29813;DHT22;16707;48.106;11.548;2023-12-20T00:54:32;7.30;79.30
29813;DHT22;16707;48.106;11.548;2023-12-20T00:56:59;7.40;79.00
29813;DHT22;16707;48.106;11.548;2023-12-20T00:59:26;7.40;79.00
29813;DHT22;16707;48.106;11.548;2023-12-20T01:01:52;7.40;78.70
29813;DHT22;16707;48.106;11.548;2023-12-20T01:04:19;7.30;79.30
29813;DHT22;16707;48.106;11.548;2023-12-20T01:06:46;7.40;80.10
29813;DHT22;16707;48.106;11.548;2023-12-20T01:09:15;7.40;79.80
29813;DHT22;16707;48.106;11.548;2023-12-20T01:11:41;7.40;80.20
29813;DHT22;16707;48.106;11.548;2023-12-20T01:14:08;7.30;80.40
29813;DHT22;16707;48.106;11.548;2023-12-20T01:16:35;7.30;80.60
29813;DHT22;16707;48.106;11.548;2023-12-20T01:19:02;7.30;80.40
29813;DHT22;16707;48.106;11.548;2023-12-20T01:21:29;7.30;80.80
29813;DHT22;16707;48.106;11.548;2023-12-20T01:23:55;7.30;80.70
29813;DHT22;16707;48.106;11.548;2023-12-20T01:26:23;7.30;81.30
29813;DHT22;16707;48.106;11.548;2023-12-20T01:28:50;7.30;81.60
29813;DHT22;16707;48.106;11.548;2023-12-20T01:31:17;7.30;81.80
29813;DHT22;16707;48.106;11.548;2023-12-20T01:33:44;7.30;82.00
29813;DHT22;16707;48.106;11.548;2023-12-20T01:36:10;7.30;82.80
29813;DHT22;16707;48.106;11.548;2023-12-20T01:38:37;7.40;83.80
29813;DHT22;16707;48.106;11.548;2023-12-20T01:41:04;7.30;84.10
29813;DHT22;16707;48.106;11.548;2023-12-20T01:43:32;7.30;84.20
29813;DHT22;16707;48.106;11.548;2023-12-20T01:45:59;7.30;84.30
29813;DHT22;16707;48.106;11.548;2023-12-20T01:48:26;7.30;84.50
29813;DHT22;16707;48.106;11.548;2023-12-20T01:50:54;7.30;84.80
29813;DHT22;16707;48.106;11.548;2023-12-20T01:53:21;7.30;84.50
29813;DHT22;16707;48.106;11.548;2023-12-20T01:55:48;7.30;84.40
29813;DHT22;16707;48.106;11.548;2023-12-20T01:58:16;7.30;84.40
29813;DHT22;16707;48.106;11.548;2023-12-20T02:00:45;7.30;85.00
29813;DHT22;16707;48.106;11.548;2023-12-20T02:03:12;7.30;84.80
29813;DHT22;16707;48.106;11.548;2023-12-20T02:05:38;7.40;84.10
29813;DHT22;16707;48.106;11.548;2023-12-20T02:08:06;7.40;84.40
29813;DHT22;16707;48.106;11.548;2023-12-20T02:10:31;7.40;84.30
29813;DHT22;16707;48.106;11.548;2023-12-20T02:12:58;7.40;84.20
29813;DHT22;16707;48.106;11.548;2023-12-20T02:15:25;7.50;83.80
29813;DHT22;16707;48.106;11.548;2023-12-20T02:17:53;7.50;83.90
29813;DHT22;16707;48.106;11.548;2023-12-20T02:20:20;7.50;84.30
29813;DHT22;16707;48.106;11.548;2023-12-20T02:22:48;7.50;84.20
29813;DHT22;16707;48.106;11.548;2023-12-20T02:25:15;7.60;84.20
29813;DHT22;16707;48.106;11.548;2023-12-20T02:27:42;7.60;84.10
29813;DHT22;16707;48.106;11.548;2023-12-20T02:30:10;7.70;84.30
29813;DHT22;16707;48.106;11.548;2023-12-20T02:32:36;7.70;84.80
29813;DHT22;16707;48.106;11.548;2023-12-20T02:35:03;7.80;84.80
29813;DHT22;16707;48.106;11.548;2023-12-20T02:37:30;7.80;85.30
29813;DHT22;16707;48.106;11.548;2023-12-20T02:39:58;7.90;85.50
29813;DHT22;16707;48.106;11.548;2023-12-20T02:42:25;7.90;85.70
29813;DHT22;16707;48.106;11.548;2023-12-20T02:44:55;7.90;85.70
29813;DHT22;16707;48.106;11.548;2023-12-20T02:47:22;7.90;86.20
29813;DHT22;16707;48.106;11.548;2023-12-20T02:49:50;7.90;86.50
29813;DHT22;16707;48.106;11.548;2023-12-20T02:52:18;7.80;86.50
29813;DHT22;16707;48.106;11.548;2023-12-20T02:54:45;7.90;86.50
29813;DHT22;16707;48.106;11.548;2023-12-20T02:57:13;7.80;86.90
29813;DHT22;16707;48.106;11.548;2023-12-20T02:59:39;7.80;87.70
29813;DHT22;16707;48.106;11.548;2023-12-20T03:02:06;7.70;88.50
29813;DHT22;16707;48.106;11.548;2023-12-20T03:04:33;7.70;89.00
29813;DHT22;16707;48.106;11.548;2023-12-20T03:07:00;7.70;89.70
29813;DHT22;16707;48.106;11.548;2023-12-20T03:09:27;7.70;90.10
29813;DHT22;16707;48.106;11.548;2023-12-20T03:11:53;7.70;90.50
29813;DHT22;16707;48.106;11.548;2023-12-20T03:14:22;7.70;90.90
29813;DHT22;16707;48.106;11.548;2023-12-20T03:16:49;7.80;91.50
29813;DHT22;16707;48.106;11.548;2023-12-20T03:19:16;7.80;92.00
29813;DHT22;16707;48.106;11.548;2023-12-20T03:21:43;7.80;92.40
29813;DHT22;16707;48.106;11.548;2023-12-20T03:24:09;7.80;92.80
29813;DHT22;16707;48.106;11.548;2023-12-20T03:26:36;7.80;93.30
29813;DHT22;16707;48.106;11.548;2023-12-20T03:29:03;7.80;93.70
29813;DHT22;16707;48.106;11.548;2023-12-20T03:31:31;7.90;93.90
29813;DHT22;16707;48.106;11.548;2023-12-20T03:33:58;7.90;94.10
29813;DHT22;16707;48.106;11.548;2023-12-20T03:36:25;8.00;94.30
29813;DHT22;16707;48.106;11.548;2023-12-20T03:38:51;7.90;94.70
29813;DHT22;16707;48.106;11.548;2023-12-20T03:41:18;7.90;95.00
29813;DHT22;16707;48.106;11.548;2023-12-20T03:43:45;7.90;95.30
29813;DHT22;16707;48.106;11.548;2023-12-20T03:46:12;7.90;95.60
29813;DHT22;16707;48.106;11.548;2023-12-20T03:48:40;7.90;95.90
29813;DHT22;16707;48.106;11.548;2023-12-20T03:51:07;8.00;96.10
29813;DHT22;16707;48.106;11.548;2023-12-20T03:53:34;7.90;96.60
29813;DHT22;16707;48.106;11.548;2023-12-20T03:56:00;7.80;97.50
29813;DHT22;16707;48.106;11.548;2023-12-20T03:58:27;7.80;98.50
29813;DHT22;16707;48.106;11.548;2023-12-20T04:00:54;7.80;99.70
29813;DHT22;16707;48.106;11.548;2023-12-20T04:03:20;7.70;99.90
29813;DHT22;16707;48.106;11.548;2023-12-20T04:05:49;7.70;99.90
29813;DHT22;16707;48.106;11.548;2023-12-20T04:08:15;7.60;99.90
29813;DHT22;16707;48.106;11.548;2023-12-20T04:10:42;7.60;99.90
29813;DHT22;16707;48.106;11.548;2023-12-20T04:13:09;7.60;99.90
29813;DHT22;16707;48.106;11.548;2023-12-20T04:15:36;7.50;99.90
29813;DHT22;16707;48.106;11.548;2023-12-20T04:18:02;7.40;99.90
29813;DHT22;16707;48.106;11.548;2023-12-20T04:20:29;7.30;99.90
29813;DHT22;16707;48.106;11.548;2023-12-20T04:22:57;7.30;99.90
29813;DHT22;16707;48.106;11.548;2023-12-20T04:25:24;7.30;99.90
29813;DHT22;16707;48.106;11.548;2023-12-20T04:27:51;7.30;99.90
29813;DHT22;16707;48.106;11.548;2023-12-20T04:30:19;7.30;99.90
29813;DHT22;16707;48.106;11.548;2023-12-20T04:32:46;7.20;99.90
29813;DHT22;16707;48.106;11.548;2023-12-20T04:35:12;7.20;99.90
29813;DHT22;16707;48.106;11.548;2023-12-20T04:37:39;7.10;99.90
29813;DHT22;16707;48.106;11.548;2023-12-20T04:40:08;7.00;99.90
29813;DHT22;16707;48.106;11.548;2023-12-20T04:42:34;7.00;99.90
29813;DHT22;16707;48.106;11.548;2023-12-20T04:45:01;7.00;99.90
29813;DHT22;16707;48.106;11.548;2023-12-20T04:47:28;7.10;99.90
29813;DHT22;16707;48.106;11.548;2023-12-20T04:49:55;7.00;99.90
29813;DHT22;16707;48.106;11.548;2023-12-20T04:52:22;7.00;99.90
29813;DHT22;16707;48.106;11.548;2023-12-20T04:54:49;7.00;99.90
29813;DHT22;16707;48.106;11.548;2023-12-20T04:57:17;7.10;99.90
29813;DHT22;16707;48.106;11.548;2023-12-20T04:59:44;7.00;99.90
29813;DHT22;16707;48.106;11.548;2023-12-20T05:02:13;7.00;99.90
29813;DHT22;16707;48.106;11.548;2023-12-20T05:04:44;7.00;99.90
29813;DHT22;16707;48.106;11.548;2023-12-20T05:07:11;6.90;99.90
29813;DHT22;16707;48.106;11.548;2023-12-20T05:09:38;6.90;99.90
29813;DHT22;16707;48.106;11.548;2023-12-20T05:12:05;6.80;99.90
29813;DHT22;16707;48.106;11.548;2023-12-20T05:14:34;6.80;99.90
29813;DHT22;16707;48.106;11.548;2023-12-20T05:17:03;6.80;99.90
29813;DHT22;16707;48.106;11.548;2023-12-20T05:19:31;6.70;99.90
29813;DHT22;16707;48.106;11.548;2023-12-20T05:22:00;6.70;99.90
29813;DHT22;16707;48.106;11.548;2023-12-20T05:24:27;6.60;99.90
29813;DHT22;16707;48.106;11.548;2023-12-20T05:26:54;6.60;99.90
29813;DHT22;16707;48.106;11.548;2023-12-20T05:29:21;6.50;99.90
29813;DHT22;16707;48.106;11.548;2023-12-20T05:31:50;6.50;99.90
29813;DHT22;16707;48.106;11.548;2023-12-20T05:34:16;6.50;99.90
29813;DHT22;16707;48.106;11.548;2023-12-20T05:36:43;6.40;99.90
29813;DHT22;16707;48.106;11.548;2023-12-20T05:39:10;6.40;99.90
29813;DHT22;16707;48.106;11.548;2023-12-20T05:41:37;6.40;99.90
29813;DHT22;16707;48.106;11.548;2023-12-20T05:44:03;6.30;99.90
29813;DHT22;16707;48.106;11.548;2023-12-20T05:46:30;6.20;99.90
29813;DHT22;16707;48.106;11.548;2023-12-20T05:48:58;6.20;99.90
29813;DHT22;16707;48.106;11.548;2023-12-20T05:51:25;6.20;99.90
29813;DHT22;16707;48.106;11.548;2023-12-20T05:53:52;6.10;99.90
29813;DHT22;16707;48.106;11.548;2023-12-20T05:56:18;6.10;99.90
29813;DHT22;16707;48.106;11.548;2023-12-20T05:58:45;6.10;99.90
29813;DHT22;16707;48.106;11.548;2023-12-20T06:01:12;6.10;99.90
29813;DHT22;16707;48.106;11.548;2023-12-20T06:03:42;6.00;99.90
29813;DHT22;16707;48.106;11.548;2023-12-20T06:06:10;6.00;99.90
29813;DHT22;16707;48.106;11.548;2023-12-20T06:08:38;6.00;99.90
29813;DHT22;16707;48.106;11.548;2023-12-20T06:11:05;6.00;99.90
29813;DHT22;16707;48.106;11.548;2023-12-20T06:13:31;5.90;99.90
29813;DHT22;16707;48.106;11.548;2023-12-20T06:15:58;5.90;99.90
29813;DHT22;16707;48.106;11.548;2023-12-20T06:18:25;5.80;99.90
29813;DHT22;16707;48.106;11.548;2023-12-20T06:20:51;5.80;99.90
29813;DHT22;16707;48.106;11.548;2023-12-20T06:23:19;5.80;99.90
29813;DHT22;16707;48.106;11.548;2023-12-20T06:25:46;5.70;99.90
29813;DHT22;16707;48.106;11.548;2023-12-20T06:28:13;6.00;99.90
29813;DHT22;16707;48.106;11.548;2023-12-20T06:30:40;5.90;99.90
29813;DHT22;16707;48.106;11.548;2023-12-20T06:33:07;5.80;99.90
29813;DHT22;16707;48.106;11.548;2023-12-20T06:35:35;5.70;99.90
29813;DHT22;16707;48.106;11.548;2023-12-20T06:38:03;5.60;99.90
29813;DHT22;16707;48.106;11.548;2023-12-20T06:40:31;5.60;99.90
29813;DHT22;16707;48.106;11.548;2023-12-20T06:42:58;5.50;99.90
29813;DHT22;16707;48.106;11.548;2023-12-20T06:45:25;5.50;99.90
29813;DHT22;16707;48.106;11.548;2023-12-20T06:47:52;5.50;99.90
29813;DHT22;16707;48.106;11.548;2023-12-20T06:50:22;5.50;99.90
29813;DHT22;16707;48.106;11.548;2023-12-20T06:52:48;5.40;99.90
29813;DHT22;16707;48.106;11.548;2023-12-20T06:55:15;5.30;99.90
29813;DHT22;16707;48.106;11.548;2023-12-20T06:57:44;5.40;99.90
29813;DHT22;16707;48.106;11.548;2023-12-20T07:00:11;5.40;99.90
29813;DHT22;16707;48.106;11.548;2023-12-20T07:02:38;5.40;99.90
29813;DHT22;16707;48.106;11.548;2023-12-20T07:05:05;5.40;99.90
29813;DHT22;16707;48.106;11.548;2023-12-20T07:07:31;5.30;99.90
29813;DHT22;16707;48.106;11.548;2023-12-20T07:09:58;5.30;99.90
29813;DHT22;16707;48.106;11.548;2023-12-20T07:12:25;5.40;99.90
29813;DHT22;16707;48.106;11.548;2023-12-20T07:14:53;5.30;99.90
29813;DHT22;16707;48.106;11.548;2023-12-20T07:17:21;5.30;99.90
29813;DHT22;16707;48.106;11.548;2023-12-20T07:19:48;5.30;99.90
29813;DHT22;16707;48.106;11.548;2023-12-20T07:22:15;5.40;99.90
29813;DHT22;16707;48.106;11.548;2023-12-20T07:24:41;5.40;99.90
29813;DHT22;16707;48.106;11.548;2023-12-20T07:27:08;5.30;99.90
29813;DHT22;16707;48.106;11.548;2023-12-20T07:29:35;5.30;99.90
29813;DHT22;16707;48.106;11.548;2023-12-20T07:32:03;5.40;99.90
29813;DHT22;16707;48.106;11.548;2023-12-20T07:34:30;5.40;99.90
29813;DHT22;16707;48.106;11.548;2023-12-20T07:36:57;5.30;99.90
29813;DHT22;16707;48.106;11.548;2023-12-20T07:39:23;5.40;99.90
29813;DHT22;16707;48.106;11.548;2023-12-20T07:41:50;5.40;99.90
29813;DHT22;16707;48.106;11.548;2023-12-20T07:44:17;5.40;99.90
29813;DHT22;16707;48.106;11.548;2023-12-20T07:46:44;5.40;99.90
29813;DHT22;16707;48.106;11.548;2023-12-20T07:49:12;5.40;99.90
29813;DHT22;16707;48.106;11.548;2023-12-20T07:51:41;5.40;99.90
29813;DHT22;16707;48.106;11.548;2023-12-20T07:54:07;5.40;99.90
29813;DHT22;16707;48.106;11.548;2023-12-20T07:56:34;5.40;99.90
29813;DHT22;16707;48.106;11.548;2023-12-20T07:59:01;5.40;99.90
29813;DHT22;16707;48.106;11.548;2023-12-20T08:01:28;5.40;99.90
29813;DHT22;16707;48.106;11.548;2023-12-20T08:03:54;5.40;99.90
29813;DHT22;16707;48.106;11.548;2023-12-20T08:06:23;5.40;99.90
29813;DHT22;16707;48.106;11.548;2023-12-20T08:08:50;5.50;99.90
29813;DHT22;16707;48.106;11.548;2023-12-20T08:11:17;5.40;99.90
29813;DHT22;16707;48.106;11.548;2023-12-20T08:13:44;5.40;99.90
29813;DHT22;16707;48.106;11.548;2023-12-20T08:16:10;5.40;99.90
29813;DHT22;16707;48.106;11.548;2023-12-20T08:18:38;5.40;99.90
29813;DHT22;16707;48.106;11.548;2023-12-20T08:21:05;5.50;99.90
29813;DHT22;16707;48.106;11.548;2023-12-20T08:23:34;5.40;99.90
29813;DHT22;16707;48.106;11.548;2023-12-20T08:26:03;5.40;99.90
29813;DHT22;16707;48.106;11.548;2023-12-20T08:28:30;5.40;99.90
29813;DHT22;16707;48.106;11.548;2023-12-20T08:30:56;5.40;99.90
29813;DHT22;16707;48.106;11.548;2023-12-20T08:33:24;5.40;99.90
29813;DHT22;16707;48.106;11.548;2023-12-20T08:35:50;5.40;99.90
29813;DHT22;16707;48.106;11.548;2023-12-20T08:38:17;5.40;99.90
29813;DHT22;16707;48.106;11.548;2023-12-20T08:40:45;5.30;99.90
29813;DHT22;16707;48.106;11.548;2023-12-20T08:43:12;5.40;99.90
29813;DHT22;16707;48.106;11.548;2023-12-20T08:45:39;5.40;99.90
29813;DHT22;16707;48.106;11.548;2023-12-20T08:48:06;5.40;99.90
29813;DHT22;16707;48.106;11.548;2023-12-20T08:50:33;5.40;99.90
29813;DHT22;16707;48.106;11.548;2023-12-20T08:53:00;5.50;99.90
29813;DHT22;16707;48.106;11.548;2023-12-20T08:55:27;5.50;99.90
29813;DHT22;16707;48.106;11.548;2023-12-20T08:57:57;5.50;99.90
29813;DHT22;16707;48.106;11.548;2023-12-20T09:00:24;5.60;99.90
29813;DHT22;16707;48.106;11.548;2023-12-20T09:02:52;5.60;99.90
29813;DHT22;16707;48.106;11.548;2023-12-20T09:05:19;5.60;99.90
29813;DHT22;16707;48.106;11.548;2023-12-20T09:07:46;5.70;99.90
29813;DHT22;16707;48.106;11.548;2023-12-20T09:10:13;5.80;99.90
29813;DHT22;16707;48.106;11.548;2023-12-20T09:12:40;5.90;99.90
29813;DHT22;16707;48.106;11.548;2023-12-20T09:15:09;6.00;99.90
29813;DHT22;16707;48.106;11.548;2023-12-20T09:17:36;6.10;99.90
29813;DHT22;16707;48.106;11.548;2023-12-20T09:20:03;6.10;99.90
29813;DHT22;16707;48.106;11.548;2023-12-20T09:22:32;6.20;99.90
29813;DHT22;16707;48.106;11.548;2023-12-20T09:24:58;6.30;99.90
29813;DHT22;16707;48.106;11.548;2023-12-20T09:27:25;6.30;99.90
29813;DHT22;16707;48.106;11.548;2023-12-20T09:29:52;6.50;99.90
29813;DHT22;16707;48.106;11.548;2023-12-20T09:32:20;6.40;99.90
29813;DHT22;16707;48.106;11.548;2023-12-20T09:34:47;6.40;99.90
29813;DHT22;16707;48.106;11.548;2023-12-20T09:37:14;6.40;99.90
29813;DHT22;16707;48.106;11.548;2023-12-20T09:39:40;6.50;99.90
29813;DHT22;16707;48.106;11.548;2023-12-20T09:42:07;6.40;99.90
29813;DHT22;16707;48.106;11.548;2023-12-20T09:44:34;6.30;99.90
29813;DHT22;16707;48.106;11.548;2023-12-20T09:47:02;6.30;99.90
29813;DHT22;16707;48.106;11.548;2023-12-20T09:49:30;6.20;99.90
29813;DHT22;16707;48.106;11.548;2023-12-20T09:51:57;6.20;99.90
29813;DHT22;16707;48.106;11.548;2023-12-20T09:54:24;6.20;99.90
29813;DHT22;16707;48.106;11.548;2023-12-20T09:56:51;6.20;99.90
29813;DHT22;16707;48.106;11.548;2023-12-20T09:59:18;6.10;99.90
29813;DHT22;16707;48.106;11.548;2023-12-20T10:01:45;6.10;99.90
29813;DHT22;16707;48.106;11.548;2023-12-20T10:04:12;6.10;99.90
29813;DHT22;16707;48.106;11.548;2023-12-20T10:06:41;6.20;99.90
29813;DHT22;16707;48.106;11.548;2023-12-20T10:09:08;6.40;99.90
29813;DHT22;16707;48.106;11.548;2023-12-20T10:11:35;6.50;99.90
29813;DHT22;16707;48.106;11.548;2023-12-20T10:14:02;6.40;99.90
29813;DHT22;16707;48.106;11.548;2023-12-20T10:16:29;6.50;99.90
29813;DHT22;16707;48.106;11.548;2023-12-20T10:18:56;6.40;99.90
29813;DHT22;16707;48.106;11.548;2023-12-20T10:21:23;6.50;99.90
29813;DHT22;16707;48.106;11.548;2023-12-20T10:23:53;6.80;99.90
29813;DHT22;16707;48.106;11.548;2023-12-20T10:26:20;7.30;99.90
29813;DHT22;16707;48.106;11.548;2023-12-20T10:28:49;7.40;99.90
29813;DHT22;16707;48.106;11.548;2023-12-20T10:31:26;7.00;99.90
29813;DHT22;16707;48.106;11.548;2023-12-20T10:33:53;6.70;99.90
29813;DHT22;16707;48.106;11.548;2023-12-20T10:36:19;6.60;99.90
29813;DHT22;16707;48.106;11.548;2023-12-20T10:38:47;6.50;99.90
29813;DHT22;16707;48.106;11.548;2023-12-20T10:41:17;6.60;99.90
29813;DHT22;16707;48.106;11.548;2023-12-20T10:43:47;6.70;99.90
29813;DHT22;16707;48.106;11.548;2023-12-20T10:46:14;6.60;99.90
29813;DHT22;16707;48.106;11.548;2023-12-20T10:48:42;6.60;99.90
29813;DHT22;16707;48.106;11.548;2023-12-20T10:51:09;6.60;99.90
29813;DHT22;16707;48.106;11.548;2023-12-20T10:53:37;6.50;99.90
29813;DHT22;16707;48.106;11.548;2023-12-20T10:56:06;6.60;99.90
29813;DHT22;16707;48.106;11.548;2023-12-20T10:58:36;6.60;99.90
29813;DHT22;16707;48.106;11.548;2023-12-20T11:01:04;6.60;99.90
29813;DHT22;16707;48.106;11.548;2023-12-20T11:03:31;6.60;99.90
29813;DHT22;16707;48.106;11.548;2023-12-20T11:05:59;6.60;99.90
29813;DHT22;16707;48.106;11.548;2023-12-20T11:08:30;6.50;99.90
29813;DHT22;16707;48.106;11.548;2023-12-20T11:10:59;6.30;99.90
29813;DHT22;16707;48.106;11.548;2023-12-20T11:13:30;6.30;99.90
29813;DHT22;16707;48.106;11.548;2023-12-20T11:15:59;6.30;99.90
29813;DHT22;16707;48.106;11.548;2023-12-20T11:18:29;6.30;99.90
29813;DHT22;16707;48.106;11.548;2023-12-20T11:21:00;6.30;99.90
29813;DHT22;16707;48.106;11.548;2023-12-20T11:23:27;6.20;99.90
29813;DHT22;16707;48.106;11.548;2023-12-20T11:25:54;6.20;99.90
29813;DHT22;16707;48.106;11.548;2023-12-20T11:28:21;6.20;99.90
29813;DHT22;16707;48.106;11.548;2023-12-20T11:30:50;6.40;99.90
29813;DHT22;16707;48.106;11.548;2023-12-20T11:33:18;6.50;99.90
29813;DHT22;16707;48.106;11.548;2023-12-20T11:35:47;6.50;99.90
29813;DHT22;16707;48.106;11.548;2023-12-20T11:38:14;6.50;99.90
29813;DHT22;16707;48.106;11.548;2023-12-20T11:40:41;6.70;99.90
29813;DHT22;16707;48.106;11.548;2023-12-20T11:43:08;6.70;99.90
29813;DHT22;16707;48.106;11.548;2023-12-20T11:45:35;6.80;99.90
29813;DHT22;16707;48.106;11.548;2023-12-20T11:48:02;6.80;99.90
29813;DHT22;16707;48.106;11.548;2023-12-20T11:50:30;6.80;99.90
29813;DHT22;16707;48.106;11.548;2023-12-20T11:52:57;7.00;99.90
29813;DHT22;16707;48.106;11.548;2023-12-20T11:55:24;7.10;99.90
29813;DHT22;16707;48.106;11.548;2023-12-20T11:57:51;7.10;99.90
29813;DHT22;16707;48.106;11.548;2023-12-20T12:00:19;7.20;99.90
29813;DHT22;16707;48.106;11.548;2023-12-20T12:02:56;7.20;99.90
29813;DHT22;16707;48.106;11.548;2023-12-20T12:05:23;7.20;99.90
29813;DHT22;16707;48.106;11.548;2023-12-20T12:07:51;7.10;99.90
29813;DHT22;16707;48.106;11.548;2023-12-20T12:10:18;7.10;99.90
29813;DHT22;16707;48.106;11.548;2023-12-20T12:12:44;7.10;99.90
29813;DHT22;16707;48.106;11.548;2023-12-20T12:15:12;7.20;99.90
29813;DHT22;16707;48.106;11.548;2023-12-20T12:17:39;7.20;99.90
29813;DHT22;16707;48.106;11.548;2023-12-20T12:20:06;7.20;99.90
29813;DHT22;16707;48.106;11.548;2023-12-20T12:22:35;7.20;99.90
29813;DHT22;16707;48.106;11.548;2023-12-20T12:25:10;7.20;99.90
29813;DHT22;16707;48.106;11.548;2023-12-20T12:27:39;7.10;99.90
29813;DHT22;16707;48.106;11.548;2023-12-20T12:30:06;7.00;99.90
29813;DHT22;16707;48.106;11.548;2023-12-20T12:32:33;7.10;99.90
29813;DHT22;16707;48.106;11.548;2023-12-20T12:35:00;7.00;99.90
29813;DHT22;16707;48.106;11.548;2023-12-20T12:37:29;6.90;99.90
29813;DHT22;16707;48.106;11.548;2023-12-20T12:39:56;6.80;99.90
29813;DHT22;16707;48.106;11.548;2023-12-20T12:42:24;6.80;99.90
29813;DHT22;16707;48.106;11.548;2023-12-20T12:44:54;6.70;99.90
29813;DHT22;16707;48.106;11.548;2023-12-20T12:47:22;6.70;99.90
29813;DHT22;16707;48.106;11.548;2023-12-20T12:49:49;6.70;99.90
29813;DHT22;16707;48.106;11.548;2023-12-20T12:52:16;6.80;99.90
29813;DHT22;16707;48.106;11.548;2023-12-20T12:54:42;6.70;99.90
29813;DHT22;16707;48.106;11.548;2023-12-20T12:57:10;6.70;99.90
29813;DHT22;16707;48.106;11.548;2023-12-20T12:59:38;6.70;99.90
29813;DHT22;16707;48.106;11.548;2023-12-20T13:02:05;6.70;99.90
29813;DHT22;16707;48.106;11.548;2023-12-20T13:04:32;6.80;99.90
29813;DHT22;16707;48.106;11.548;2023-12-20T13:06:58;6.80;99.90
29813;DHT22;16707;48.106;11.548;2023-12-20T13:09:25;6.90;99.90
29813;DHT22;16707;48.106;11.548;2023-12-20T13:11:52;6.90;99.90
29813;DHT22;16707;48.106;11.548;2023-12-20T13:14:19;6.90;99.90
29813;DHT22;16707;48.106;11.548;2023-12-20T13:16:47;6.80;99.90
29813;DHT22;16707;48.106;11.548;2023-12-20T13:19:13;6.70;99.90
29813;DHT22;16707;48.106;11.548;2023-12-20T13:21:40;6.30;99.90
29813;DHT22;16707;48.106;11.548;2023-12-20T13:24:07;6.10;99.90
29813;DHT22;16707;48.106;11.548;2023-12-20T13:26:33;5.90;99.90
29813;DHT22;16707;48.106;11.548;2023-12-20T13:29:00;5.90;99.90
29813;DHT22;16707;48.106;11.548;2023-12-20T13:31:27;5.70;99.90
29813;DHT22;16707;48.106;11.548;2023-12-20T13:33:55;5.60;99.90
29813;DHT22;16707;48.106;11.548;2023-12-20T13:36:22;5.60;99.90
29813;DHT22;16707;48.106;11.548;2023-12-20T13:38:48;5.50;99.90
29813;DHT22;16707;48.106;11.548;2023-12-20T13:41:15;5.40;99.90
29813;DHT22;16707;48.106;11.548;2023-12-20T13:43:42;5.30;99.90
29813;DHT22;16707;48.106;11.548;2023-12-20T13:46:09;5.30;99.90
29813;DHT22;16707;48.106;11.548;2023-12-20T13:48:36;5.30;99.90
29813;DHT22;16707;48.106;11.548;2023-12-20T13:51:04;5.30;99.90
29813;DHT22;16707;48.106;11.548;2023-12-20T13:53:31;5.20;99.90
29813;DHT22;16707;48.106;11.548;2023-12-20T13:55:58;5.40;99.90
29813;DHT22;16707;48.106;11.548;2023-12-20T13:58:25;5.40;99.90
29813;DHT22;16707;48.106;11.548;2023-12-20T14:00:52;5.30;99.90
29813;DHT22;16707;48.106;11.548;2023-12-20T14:03:18;5.30;99.90
29813;DHT22;16707;48.106;11.548;2023-12-20T14:05:46;5.20;99.90
29813;DHT22;16707;48.106;11.548;2023-12-20T14:08:14;5.20;99.90
29813;DHT22;16707;48.106;11.548;2023-12-20T14:10:41;5.20;99.90
29813;DHT22;16707;48.106;11.548;2023-12-20T14:13:07;5.40;99.90
29813;DHT22;16707;48.106;11.548;2023-12-20T14:15:34;5.40;99.90
29813;DHT22;16707;48.106;11.548;2023-12-20T14:18:03;5.30;99.90
29813;DHT22;16707;48.106;11.548;2023-12-20T14:20:31;5.40;99.90
29813;DHT22;16707;48.106;11.548;2023-12-20T14:22:59;5.40;99.90
29813;DHT22;16707;48.106;11.548;2023-12-20T14:25:27;5.40;99.90
29813;DHT22;16707;48.106;11.548;2023-12-20T14:27:54;5.40;99.90
29813;DHT22;16707;48.106;11.548;2023-12-20T14:30:21;5.40;99.90
29813;DHT22;16707;48.106;11.548;2023-12-20T14:32:48;5.30;99.90
29813;DHT22;16707;48.106;11.548;2023-12-20T14:35:15;5.30;99.90
29813;DHT22;16707;48.106;11.548;2023-12-20T14:37:41;5.40;99.90
29813;DHT22;16707;48.106;11.548;2023-12-20T14:40:09;5.40;99.90
29813;DHT22;16707;48.106;11.548;2023-12-20T14:42:41;5.30;99.90
29813;DHT22;16707;48.106;11.548;2023-12-20T14:45:08;5.30;99.90
29813;DHT22;16707;48.106;11.548;2023-12-20T14:47:35;5.40;99.90
29813;DHT22;16707;48.106;11.548;2023-12-20T14:50:02;5.30;99.90
29813;DHT22;16707;48.106;11.548;2023-12-20T14:52:29;5.20;99.90
29813;DHT22;16707;48.106;11.548;2023-12-20T14:54:56;5.20;99.90
29813;DHT22;16707;48.106;11.548;2023-12-20T14:57:23;5.10;99.90
29813;DHT22;16707;48.106;11.548;2023-12-20T14:59:51;5.10;99.90
29813;DHT22;16707;48.106;11.548;2023-12-20T15:02:18;5.10;99.90
29813;DHT22;16707;48.106;11.548;2023-12-20T15:04:45;5.20;99.90
29813;DHT22;16707;48.106;11.548;2023-12-20T15:07:11;5.20;99.90
29813;DHT22;16707;48.106;11.548;2023-12-20T15:09:38;5.20;99.90
29813;DHT22;16707;48.106;11.548;2023-12-20T15:12:05;5.10;99.90
29813;DHT22;16707;48.106;11.548;2023-12-20T15:14:32;5.00;99.90
29813;DHT22;16707;48.106;11.548;2023-12-20T15:17:00;4.90;99.90
29813;DHT22;16707;48.106;11.548;2023-12-20T15:19:27;4.90;99.90
29813;DHT22;16707;48.106;11.548;2023-12-20T15:21:54;4.90;99.90
29813;DHT22;16707;48.106;11.548;2023-12-20T15:24:21;4.90;99.90
29813;DHT22;16707;48.106;11.548;2023-12-20T15:26:53;5.00;99.90
29813;DHT22;16707;48.106;11.548;2023-12-20T15:29:21;5.00;99.90